Time;durP1;ratioP1;P1;durP2;ratioP2;P2;SDS_P1;SDS_P2;PMS_P1;PMS_P2;Temp;Humidity;BMP_temperature;BMP_pressure;BME280_temperature;BME280_humidity;BME280_pressure;Samples;Min_cycle;Max_cycle;Signal;HPM_P1;HPM_P2
2022/08/05 00:02:09;;;;;;;9.00;4.80;;;;;;;;;;5092136;28;20028;-53
2022/08/05 00:04:35;;;;;;;5.18;4.40;;;22.30;99.90;;;;;;5090760;28;20099;-56
2022/08/05 00:07:02;;;;;;;8.63;4.88;;;22.10;99.90;;;;;;5038436;28;20043;-55
2022/08/05 00:09:28;;;;;;;5.75;4.68;;;22.20;99.90;;;;;;5091582;28;20024;-53
2022/08/05 00:11:53;;;;;;;7.63;4.78;;;22.50;99.90;;;;;;5054361;28;20063;-54
2022/08/05 00:14:19;;;;;;;6.13;5.10;;;;;;;;;;5091226;28;20122;-59
2022/08/05 00:16:45;;;;;;;7.65;4.60;;;22.70;99.90;;;;;;5090378;28;20028;-49
2022/08/05 00:19:11;;;;;;;10.43;5.30;;;22.80;99.90;;;;;;5090518;28;20023;-49
2022/08/05 00:21:37;;;;;;;6.32;5.03;;;22.80;99.90;;;;;;5055909;28;20040;-55
2022/08/05 00:24:03;;;;;;;7.20;5.30;;;22.70;99.90;;;;;;5088523;28;20043;-56
2022/08/05 00:26:29;;;;;;;6.15;4.88;;;22.60;99.90;;;;;;5090993;28;20027;-53
2022/08/05 00:28:54;;;;;;;6.93;5.00;;;22.70;99.90;;;;;;5005184;28;20032;-52
2022/08/05 00:31:20;;;;;;;5.88;5.25;;;23.10;99.90;;;;;;5089404;28;20055;-55
2022/08/05 00:33:46;;;;;;;6.63;5.15;;;23.40;99.90;;;;;;5087131;28;20055;-46
2022/08/05 00:36:13;;;;;;;6.90;4.70;;;23.60;99.90;;;;;;5088237;28;20036;-55
2022/08/05 00:38:39;;;;;;;8.57;5.93;;;23.70;99.90;;;;;;5090470;28;20028;-52
2022/08/05 00:41:06;;;;;;;7.13;4.82;;;23.90;99.80;;;;;;5087491;28;20124;-50
2022/08/05 00:43:35;;;;;;;10.88;4.68;;;23.90;99.50;;;;;;5090650;28;20024;-52
2022/08/05 00:46:01;;;;;;;5.65;4.60;;;23.80;99.60;;;;;;5089840;28;20109;-52
2022/08/05 00:48:27;;;;;;;6.20;4.68;;;23.90;99.40;;;;;;5091199;28;20080;-53
2022/08/05 00:50:53;;;;;;;5.68;4.95;;;23.80;99.20;;;;;;5089994;28;20040;-49
2022/08/05 00:53:23;;;;;;;9.63;5.53;;;23.40;99.70;;;;;;5090404;28;20102;-49
2022/08/05 00:55:50;;;;;;;6.30;4.85;;;23.30;99.90;;;;;;5088346;28;20544;-52
2022/08/05 00:58:17;;;;;;;5.15;4.65;;;23.10;99.90;;;;;;5090819;28;20028;-53
2022/08/05 01:00:43;;;;;;;7.38;5.00;;;23.10;99.90;;;;;;5037311;28;20032;-51
2022/08/05 01:03:09;;;;;;;8.93;5.20;;;23.20;99.90;;;;;;5089137;28;20036;-55
2022/08/05 01:05:35;;;;;;;9.05;5.22;;;23.20;99.90;;;;;;5085563;28;20081;-52
2022/08/05 01:08:01;;;;;;;5.35;4.60;;;23.20;99.90;;;;;;5083464;28;20028;-46
2022/08/05 01:10:33;;;;;;;6.00;5.40;;;23.30;99.90;;;;;;5089058;28;20032;-54
2022/08/05 01:13:06;;;;;;;5.93;5.30;;;23.30;99.90;;;;;;5090759;28;20028;-48
2022/08/05 01:15:41;;;;;;;5.68;5.00;;;23.30;99.90;;;;;;5083450;28;20044;-58
2022/08/05 01:18:14;;;;;;;8.95;4.90;;;22.90;99.90;;;;;;5088809;28;20039;-56
2022/08/05 01:21:24;;;;;;;5.78;5.07;;;23.10;99.90;;;;;;5089979;28;20472;-52
2022/08/05 01:24:27;;;;;;;6.20;5.18;;;23.20;99.90;;;;;;4986766;28;20034;-62
2022/08/05 01:26:59;;;;;;;6.45;5.43;;;22.80;99.90;;;;;;4948704;28;20142;-47
2022/08/05 01:29:39;;;;;;;9.48;6.28;;;22.60;99.90;;;;;;4989150;28;20031;-52
2022/08/05 01:32:08;;;;;;;7.72;5.38;;;22.80;99.90;;;;;;4985106;28;20038;-52
2022/08/05 01:34:41;;;;;;;7.45;5.03;;;22.80;99.90;;;;;;4983538;28;20049;-57
2022/08/05 01:37:21;;;;;;;6.60;5.82;;;22.90;99.90;;;;;;4983497;28;20045;-59
2022/08/05 01:39:50;;;;;;;5.82;5.22;;;22.50;99.90;;;;;;4986996;28;20089;-50
2022/08/05 01:42:19;;;;;;;6.30;5.68;;;22.00;99.90;;;;;;4988950;28;20038;-53
2022/08/05 01:44:45;;;;;;;5.97;5.38;;;;;;;;;;4970451;28;20600;-51
2022/08/05 01:47:17;;;;;;;7.93;5.80;;;21.50;99.90;;;;;;4986195;28;20049;-49
2022/08/05 01:49:44;;;;;;;7.22;5.03;;;21.20;99.90;;;;;;4987596;28;20042;-56
2022/08/05 01:52:13;;;;;;;6.10;5.50;;;21.30;99.90;;;;;;4988097;28;20039;-53
2022/08/05 01:54:41;;;;;;;6.25;5.65;;;;;;;;;;4988075;28;20097;-54
2022/08/05 01:57:08;;;;;;;8.07;5.93;;;;;;;;;;5008561;28;20036;-53
2022/08/05 01:59:34;;;;;;;8.38;5.95;;;;;;;;;;5083592;28;20067;-59
2022/08/05 02:02:01;;;;;;;5.90;5.30;;;20.90;99.90;;;;;;5087349;28;20032;-52
2022/08/05 02:04:28;;;;;;;8.27;5.55;;;;;;;;;;5090059;28;20077;-56
2022/08/05 02:06:56;;;;;;;7.75;5.38;;;21.00;99.90;;;;;;5083406;28;20031;-52
2022/08/05 02:09:22;;;;;;;6.65;5.63;;;20.50;99.90;;;;;;5089166;28;20479;-56
2022/08/05 02:12:11;;;;;;;6.13;5.45;;;20.40;99.90;;;;;;5002785;28;20048;-57
2022/08/05 02:14:46;;;;;;;5.70;5.10;;;20.60;99.90;;;;;;5052427;28;20067;-47
2022/08/05 02:17:24;;;;;;;5.95;5.25;;;20.90;99.90;;;;;;5082296;28;20031;-50
2022/08/05 02:19:54;;;;;;;13.13;5.38;;;21.40;99.90;;;;;;5070525;28;20454;-59
2022/08/05 02:22:31;;;;;;;7.55;5.50;;;21.80;99.90;;;;;;5090001;28;20089;-48
2022/08/05 02:25:04;;;;;;;7.65;5.00;;;22.00;99.90;;;;;;5088951;28;20628;-54
2022/08/05 02:27:33;;;;;;;6.70;5.07;;;22.10;99.90;;;;;;5089276;28;20036;-54
2022/08/05 02:30:00;;;;;;;7.05;5.28;;;22.20;99.90;;;;;;5053208;28;20044;-57
2022/08/05 02:32:30;;;;;;;5.78;5.25;;;22.50;99.90;;;;;;5089472;28;20024;-57
2022/08/05 02:34:59;;;;;;;6.60;5.13;;;22.50;99.90;;;;;;5085429;28;20055;-53
2022/08/05 02:37:27;;;;;;;6.68;4.90;;;22.70;99.90;;;;;;5089305;28;20020;-51
2022/08/05 02:39:54;;;;;;;6.78;5.03;;;22.80;99.90;;;;;;5089105;28;20024;-54
2022/08/05 02:42:20;;;;;;;6.72;5.25;;;22.90;99.90;;;;;;5089724;28;20024;-53
2022/08/05 02:44:47;;;;;;;6.03;4.72;;;22.90;99.90;;;;;;5092364;28;20024;-56
2022/08/05 02:47:14;;;;;;;8.73;5.00;;;22.80;99.90;;;;;;5057929;28;20123;-59
2022/08/05 02:49:43;;;;;;;6.95;5.53;;;22.80;99.90;;;;;;5070638;28;20085;-56
2022/08/05 02:52:13;;;;;;;6.68;4.88;;;22.80;99.90;;;;;;5092983;28;20032;-60
2022/08/05 02:54:41;;;;;;;5.32;4.70;;;22.80;99.90;;;;;;5091838;28;20068;-55
2022/08/05 02:57:14;;;;;;;5.10;4.60;;;22.90;99.90;;;;;;5092573;28;20024;-50
2022/08/05 02:59:43;;;;;;;7.78;4.80;;;22.90;99.90;;;;;;5092008;28;20024;-55
2022/08/05 03:02:12;;;;;;;9.75;5.20;;;22.80;99.90;;;;;;5092487;28;20075;-48
2022/08/05 03:04:38;;;;;;;5.40;4.88;;;22.80;99.90;;;;;;5087839;28;20020;-56
2022/08/05 03:07:05;;;;;;;8.65;5.13;;;22.80;99.90;;;;;;5092086;28;20491;-60
2022/08/05 03:09:31;;;;;;;6.40;4.75;;;22.90;99.90;;;;;;5092435;28;20028;-56
2022/08/05 03:11:57;;;;;;;9.35;5.10;;;22.90;99.90;;;;;;5027956;28;20187;-50
2022/08/05 03:14:23;;;;;;;9.25;4.38;;;22.80;99.90;;;;;;5091695;28;20575;-56
2022/08/05 03:16:49;;;;;;;9.45;5.07;;;22.80;99.90;;;;;;5091545;28;20549;-61
2022/08/05 03:19:14;;;;;;;11.73;5.22;;;22.90;99.90;;;;;;5090230;28;20387;-57
2022/08/05 03:21:40;;;;;;;6.20;4.75;;;;;;;;;;5091018;28;20072;-49
2022/08/05 03:24:08;;;;;;;6.97;5.25;;;23.10;99.90;;;;;;5046097;28;20410;-52
2022/08/05 03:26:34;;;;;;;8.98;4.85;;;23.10;99.90;;;;;;5056157;28;20173;-52
2022/08/05 03:29:00;;;;;;;7.07;5.10;;;23.10;99.90;;;;;;5090573;28;20115;-57
2022/08/05 03:31:26;;;;;;;8.40;5.03;;;23.20;99.90;;;;;;5090283;28;20028;-51
2022/08/05 03:33:52;;;;;;;9.02;4.75;;;23.30;99.90;;;;;;5087286;28;20034;-51
2022/08/05 03:36:18;;;;;;;7.32;4.93;;;23.40;99.90;;;;;;5054123;28;20055;-56
2022/08/05 03:38:44;;;;;;;11.43;5.90;;;23.30;99.90;;;;;;5007213;28;20510;-49
2022/08/05 03:41:10;;;;;;;6.95;5.60;;;23.40;99.90;;;;;;5054814;28;20567;-51
2022/08/05 03:43:36;;;;;;;7.20;5.00;;;23.40;99.90;;;;;;5005988;28;20036;-48
2022/08/05 03:46:03;;;;;;;12.82;5.20;;;23.20;99.90;;;;;;5091638;28;20055;-52
2022/08/05 03:48:29;;;;;;;14.95;6.07;;;23.20;99.90;;;;;;5090125;28;20028;-58
2022/08/05 03:51:13;;;;;;;9.00;5.80;;;23.30;99.90;;;;;;5036940;28;20040;-48
2022/08/05 03:54:11;;;;;;;8.95;5.22;;;23.30;99.90;;;;;;5089557;28;20045;-57
2022/08/05 03:56:45;;;;;;;6.20;5.13;;;23.10;99.90;;;;;;5089857;28;20047;-54
2022/08/05 03:59:23;;;;;;;7.05;5.60;;;22.40;99.90;;;;;;5082206;28;20036;-45
2022/08/05 04:01:50;;;;;;;8.73;5.60;;;22.30;99.90;;;;;;5090868;28;20031;-56
2022/08/05 04:04:20;;;;;;;6.50;5.85;;;22.10;99.90;;;;;;5071887;28;20032;-58
2022/08/05 04:06:46;;;;;;;5.50;5.00;;;22.10;99.90;;;;;;5089903;28;20028;-55
2022/08/05 04:09:13;;;;;;;8.25;7.43;;;22.20;99.90;;;;;;5085614;28;20021;-57
2022/08/05 04:11:39;;;;;;;11.80;7.18;;;22.30;99.90;;;;;;5089607;28;21051;-52
2022/08/05 04:14:06;;;;;;;8.38;6.97;;;22.20;99.90;;;;;;5085971;28;20032;-50
2022/08/05 04:16:34;;;;;;;11.68;6.57;;;22.20;99.90;;;;;;5087960;28;20036;-52
2022/08/05 04:19:00;;;;;;;8.02;6.95;;;22.30;99.90;;;;;;5089373;28;20064;-49
2022/08/05 04:21:27;;;;;;;8.98;6.68;;;22.50;99.90;;;;;;5089703;28;20058;-60
2022/08/05 04:23:53;;;;;;;7.68;6.82;;;22.50;99.90;;;;;;5053371;28;20048;-54
2022/08/05 04:26:19;;;;;;;8.25;6.97;;;22.30;99.90;;;;;;5084749;28;20165;-53
2022/08/05 04:28:44;;;;;;;7.55;6.28;;;22.00;99.90;;;;;;5090415;28;20036;-50
2022/08/05 04:31:10;;;;;;;8.63;6.50;;;21.80;99.90;;;;;;5090466;28;20024;-53
2022/08/05 04:33:36;;;;;;;12.70;6.88;;;22.30;99.90;;;;;;5089914;28;20407;-51
2022/08/05 04:36:02;;;;;;;13.68;7.10;;;22.50;99.90;;;;;;5084492;28;20037;-53
2022/08/05 04:38:27;;;;;;;17.45;6.50;;;22.90;99.90;;;;;;5089116;28;20032;-59
2022/08/05 04:40:53;;;;;;;8.88;6.75;;;22.70;99.90;;;;;;5087917;28;20032;-60
2022/08/05 04:43:19;;;;;;;11.63;6.93;;;22.60;99.90;;;;;;5002088;28;20131;-59
2022/08/05 04:45:45;;;;;;;8.13;6.50;;;22.50;99.90;;;;;;5051076;28;20043;-54
2022/08/05 04:48:13;;;;;;;7.72;6.43;;;22.80;99.90;;;;;;5089104;28;20024;-55
2022/08/05 04:50:47;;;;;;;7.63;6.68;;;23.00;99.90;;;;;;5090471;28;20024;-51
2022/08/05 04:53:15;;;;;;;12.38;6.18;;;23.00;99.90;;;;;;5081952;28;20491;-51
2022/08/05 04:55:42;;;;;;;12.93;6.20;;;22.80;99.90;;;;;;5054392;28;20089;-51
2022/08/05 04:58:10;;;;;;;11.23;6.45;;;22.60;99.90;;;;;;5092801;28;20039;-48
2022/08/05 05:00:37;;;;;;;10.13;5.53;;;22.70;99.90;;;;;;5092411;28;20035;-49
2022/08/05 05:03:05;;;;;;;7.85;5.60;;;22.90;99.90;;;;;;5091869;28;20447;-49
2022/08/05 05:05:31;;;;;;;16.02;6.10;;;23.20;99.90;;;;;;5073152;28;20110;-52
2022/08/05 05:08:02;;;;;;;13.38;7.22;;;23.40;99.90;;;;;;5092312;28;20039;-48
2022/08/05 05:10:42;;;;;;;16.83;6.82;;;23.80;99.90;;;;;;5092041;28;20056;-50
2022/08/05 05:13:12;;;;;;;9.10;5.90;;;23.90;99.90;;;;;;5089781;28;20032;-53
2022/08/05 05:15:38;;;;;;;167.18;44.80;;;24.00;99.90;;;;;;5087882;28;20536;-50
2022/08/05 05:18:05;;;;;;;12.50;7.75;;;24.20;99.90;;;;;;5091454;28;20507;-51
2022/08/05 05:20:31;;;;;;;10.85;6.20;;;24.00;99.90;;;;;;5091599;28;20047;-52
2022/08/05 05:22:57;;;;;;;12.68;6.00;;;24.00;99.90;;;;;;5091657;28;20031;-48
2022/08/05 05:25:24;;;;;;;10.50;5.85;;;24.10;99.90;;;;;;5055039;28;20043;-49
2022/08/05 05:27:51;;;;;;;8.88;6.22;;;24.20;99.90;;;;;;5091602;28;20035;-47
2022/08/05 05:30:17;;;;;;;13.20;6.32;;;24.40;99.90;;;;;;5085035;28;20162;-45
2022/08/05 05:32:43;;;;;;;10.43;6.30;;;;;;;;;;5083215;28;20024;-47
2022/08/05 05:35:09;;;;;;;8.57;5.82;;;24.90;99.90;;;;;;5090325;28;20267;-45
2022/08/05 05:37:49;;;;;;;11.93;6.93;;;;;;;;;;5091796;28;20110;-47
2022/08/05 05:40:21;;;;;;;9.15;5.75;;;25.00;99.90;;;;;;5091462;28;20062;-50
2022/08/05 05:42:48;;;;;;;10.52;6.10;;;25.10;99.90;;;;;;5087569;28;20038;-46
2022/08/05 05:45:14;;;;;;;8.85;6.25;;;;;;;;;;5091143;28;20056;-49
2022/08/05 05:47:40;;;;;;;9.98;6.57;;;25.50;99.90;;;;;;5091956;28;20037;-47
2022/08/05 05:50:09;;;;;;;12.45;6.68;;;;;;;;;;5055477;28;20044;-49
2022/08/05 05:52:35;;;;;;;12.35;7.50;;;;;;;;;;5091030;28;20028;-47
2022/08/05 05:55:03;;;;;;;12.15;7.60;;;25.80;99.90;;;;;;5091488;28;20038;-50
2022/08/05 05:57:29;;;;;;;13.15;8.32;;;25.70;99.90;;;;;;5005528;28;20255;-50
2022/08/05 05:59:55;;;;;;;9.23;7.13;;;;;;;;;;5091271;28;20030;-49
2022/08/05 06:02:21;;;;;;;13.75;8.38;;;;;;;;;;5083101;28;20028;-48
2022/08/05 06:04:47;;;;;;;8.85;7.57;;;26.00;99.90;;;;;;5039094;28;20511;-48
2022/08/05 06:07:13;;;;;;;10.43;7.38;;;;;;;;;;5038807;28;20032;-48
2022/08/05 06:09:39;;;;;;;12.45;7.53;;;26.40;99.90;;;;;;5055180;28;20368;-49
2022/08/05 06:12:05;;;;;;;10.52;7.07;;;;;;;;;;5092073;28;20028;-47
2022/08/05 06:14:32;;;;;;;12.93;7.55;;;26.60;99.90;;;;;;5091159;28;20040;-49
2022/08/05 06:16:59;;;;;;;12.75;8.55;;;26.60;99.90;;;;;;5091896;28;20031;-49
2022/08/05 06:19:25;;;;;;;15.63;7.88;;;;;;;;;;5094943;28;20511;-47
2022/08/05 06:21:51;;;;;;;10.63;7.20;;;26.60;99.90;;;;;;5094812;28;20070;-48
2022/08/05 06:24:17;;;;;;;13.82;7.40;;;27.00;99.90;;;;;;5042542;28;20067;-49
2022/08/05 06:26:43;;;;;;;12.00;7.80;;;;;;;;;;5058878;28;20036;-48
2022/08/05 06:29:09;;;;;;;16.80;8.55;;;;;;;;;;5095409;28;20024;-45
2022/08/05 06:31:36;;;;;;;10.90;7.63;;;;;;;;;;5094716;28;20039;-47
2022/08/05 06:34:03;;;;;;;14.98;8.23;;;27.30;99.20;;;;;;5094786;28;20039;-51
2022/08/05 06:36:29;;;;;;;10.00;7.45;;;27.30;99.40;;;;;;5090127;28;20071;-47
2022/08/05 06:38:55;;;;;;;10.50;8.23;;;27.40;99.30;;;;;;4977075;28;20067;-46
2022/08/05 06:41:21;;;;;;;15.27;8.25;;;27.50;99.70;;;;;;5094896;28;20482;-48
2022/08/05 06:43:47;;;;;;;17.67;8.15;;;27.50;99.10;;;;;;5094333;28;20043;-49
2022/08/05 06:46:14;;;;;;;9.45;8.13;;;27.60;99.00;;;;;;5094381;28;20043;-47
2022/08/05 06:48:39;;;;;;;23.65;8.73;;;27.90;99.10;;;;;;5094996;28;20024;-48
2022/08/05 06:51:05;;;;;;;16.58;8.63;;;28.00;98.60;;;;;;5042183;28;20047;-46
2022/08/05 06:53:32;;;;;;;16.50;7.97;;;28.00;98.30;;;;;;5042185;28;20165;-48
2022/08/05 06:55:59;;;;;;;22.30;8.38;;;28.20;98.20;;;;;;5094180;28;20383;-49
2022/08/05 06:58:28;;;;;;;16.65;8.18;;;28.40;98.10;;;;;;5041636;28;20036;-48
2022/08/05 07:00:54;;;;;;;18.73;7.88;;;;;;;;;;5076275;28;20043;-45
2022/08/05 07:03:21;;;;;;;15.30;8.75;;;;;;;;;;5094760;28;20028;-45
2022/08/05 07:05:46;;;;;;;19.27;8.93;;;28.90;99.90;;;;;;5093966;28;20082;-48
2022/08/05 07:08:12;;;;;;;17.77;8.52;;;28.80;97.20;;;;;;5094213;28;20032;-48
2022/08/05 07:10:39;;;;;;;14.20;8.18;;;29.00;98.60;;;;;;5093898;28;20082;-47
2022/08/05 07:18:34;;;;;;;13.50;7.50;;;29.40;99.90;;;;;;5087627;28;20043;-49
2022/08/05 07:20:59;;;;;;;14.50;7.00;;;29.40;95.20;;;;;;5093991;28;20036;-46
2022/08/05 07:23:25;;;;;;;14.90;7.53;;;29.60;94.70;;;;;;5093578;28;20032;-46
2022/08/05 07:25:51;;;;;;;20.75;6.97;;;29.70;94.70;;;;;;5090435;28;20094;-50
2022/08/05 07:28:17;;;;;;;16.92;7.03;;;29.90;94.20;;;;;;5007337;28;20395;-46
2022/08/05 07:30:43;;;;;;;14.95;6.15;;;30.10;94.10;;;;;;5091418;28;20028;-47
2022/08/05 07:33:11;;;;;;;14.38;7.00;;;;;;;;;;5093518;28;20532;-44
2022/08/05 07:35:39;;;;;;;16.95;6.22;;;;;;;;;;5082914;28;20032;-49
2022/08/05 07:38:05;;;;;;;11.25;5.85;;;30.80;99.90;;;;;;5084237;28;21296;-50
2022/08/05 07:40:31;;;;;;;8.48;5.63;;;30.80;99.90;;;;;;5084628;28;20020;-49
2022/08/05 07:42:57;;;;;;;12.23;5.97;;;30.90;98.20;;;;;;5084738;28;20102;-48
2022/08/05 07:45:23;;;;;;;14.55;6.25;;;;;;;;;;5080457;28;20055;-47
2022/08/05 07:47:49;;;;;;;10.10;4.93;;;31.20;92.80;;;;;;5085222;28;20016;-50
2022/08/05 07:50:15;;;;;;;13.43;5.65;;;;;;;;;;5082844;28;20032;-52
2022/08/05 07:52:42;;;;;;;31.23;11.20;;;31.30;99.90;;;;;;5018632;28;20052;-50
2022/08/05 07:55:09;;;;;;;11.10;5.53;;;31.40;99.90;;;;;;5023593;28;20041;-52
2022/08/05 07:57:35;;;;;;;8.25;4.85;;;31.40;90.20;;;;;;4980132;28;20116;-53
2022/08/05 08:00:02;;;;;;;32.67;11.52;;;;;;;;;;5026371;28;20080;-52
2022/08/05 08:02:28;;;;;;;16.58;6.25;;;;;;;;;;5030497;28;20109;-50
2022/08/05 08:04:56;;;;;;;10.38;4.63;;;32.00;99.90;;;;;;5029928;28;20576;-51
2022/08/05 08:07:22;;;;;;;9.35;4.93;;;;;;;;;;5030452;28;20120;-50
2022/08/05 08:09:50;;;;;;;12.88;5.05;;;31.80;99.90;;;;;;5030647;28;20033;-53
2022/08/05 08:12:16;;;;;;;7.10;4.65;;;;;;;;;;5029916;28;20037;-50
2022/08/05 08:14:42;;;;;;;10.93;4.20;;;;;;;;;;5030399;28;20476;-55
2022/08/05 08:17:09;;;;;;;12.68;5.38;;;;;;;;;;5028942;28;20124;-55
2022/08/05 08:19:38;;;;;;;8.85;4.95;;;32.80;92.30;;;;;;5029810;28;20409;-50
2022/08/05 08:22:05;;;;;;;7.85;4.57;;;32.70;86.40;;;;;;5030015;28;20807;-50
2022/08/05 08:24:31;;;;;;;8.57;5.88;;;32.80;85.20;;;;;;5083187;28;20040;-53
2022/08/05 08:26:57;;;;;;;7.32;4.10;;;33.20;96.10;;;;;;5092432;28;20035;-48
2022/08/05 08:29:23;;;;;;;5.75;3.70;;;33.10;87.20;;;;;;5039932;28;20109;-53
2022/08/05 08:31:49;;;;;;;5.80;4.07;;;33.10;84.50;;;;;;5092796;28;20463;-53
2022/08/05 08:34:19;;;;;;;7.00;3.70;;;;;;;;;;5057141;28;20071;-50
2022/08/05 08:36:45;;;;;;;9.18;3.67;;;33.60;99.90;;;;;;5092293;28;20040;-52
2022/08/05 08:39:11;;;;;;;9.25;3.55;;;;;;;;;;5055840;28;20036;-52
2022/08/05 08:41:40;;;;;;;5.00;3.10;;;;;;;;;;5092386;28;20026;-51
2022/08/05 08:44:07;;;;;;;5.20;3.50;;;34.00;89.90;;;;;;5091878;28;20032;-56
2022/08/05 08:46:34;;;;;;;5.18;3.55;;;;;;;;;;5039668;28;20048;-52
2022/08/05 08:49:02;;;;;;;3.88;3.33;;;;;;;;;;5092673;28;20543;-56
2022/08/05 08:51:31;;;;;;;4.60;3.15;;;;;;;;;;5091810;28;20028;-49
2022/08/05 08:53:57;;;;;;;6.45;3.13;;;;;;;;;;5092170;28;20472;-50
2022/08/05 08:56:23;;;;;;;6.63;3.95;;;34.50;88.90;;;;;;5091785;28;20035;-49
2022/08/05 08:58:50;;;;;;;7.32;3.22;;;;;;;;;;5039672;28;20031;-50
2022/08/05 09:01:17;;;;;;;5.65;3.13;;;34.70;77.80;;;;;;5091930;28;20444;-48
2022/08/05 09:03:45;;;;;;;6.25;3.60;;;;;;;;;;5092344;28;20063;-51
2022/08/05 09:06:11;;;;;;;6.07;2.92;;;35.20;96.20;;;;;;5091438;28;20059;-54
2022/08/05 09:08:37;;;;;;;3.70;3.10;;;35.40;77.40;;;;;;5091802;28;20471;-52
2022/08/05 09:11:03;;;;;;;5.07;3.00;;;;;;;;;;5049033;28;20067;-52
2022/08/05 09:13:29;;;;;;;3.65;3.30;;;;;;;;;;5035140;28;20067;-49
2022/08/05 09:15:55;;;;;;;7.90;3.42;;;35.90;74.80;;;;;;5090657;28;20036;-47
2022/08/05 09:18:21;;;;;;;4.10;2.80;;;;;;;;;;5055954;28;20127;-50
2022/08/05 09:20:47;;;;;;;3.88;3.30;;;35.80;73.50;;;;;;5091658;28;20024;-53
2022/08/05 09:23:16;;;;;;;5.38;3.30;;;35.90;73.50;;;;;;5092250;28;20028;-53
2022/08/05 09:25:46;;;;;;;4.60;3.03;;;35.80;73.80;;;;;;5040021;28;20540;-53
2022/08/05 09:28:22;;;;;;;4.10;2.78;;;36.20;73.80;;;;;;5091119;28;20036;-49
2022/08/05 09:31:03;;;;;;;4.35;2.78;;;36.30;73.20;;;;;;5091517;28;20044;-51
2022/08/05 09:33:29;;;;;;;;;;;36.20;72.00;;;;;;5053825;28;20040;-52
2022/08/05 09:35:59;;;;;;;6.32;2.97;;;36.00;72.20;;;;;;5054829;28;19919;-53
2022/08/05 09:38:26;;;;;;;7.30;3.78;;;36.00;72.10;;;;;;5074729;28;20051;-55
2022/08/05 09:40:53;;;;;;;6.32;2.60;;;36.20;72.70;;;;;;5083517;28;20170;-50
2022/08/05 09:43:36;;;;;;;3.45;2.95;;;36.40;71.10;;;;;;5078515;28;20036;-49
2022/08/05 09:46:05;;;;;;;2.88;2.55;;;36.50;72.60;;;;;;5079297;28;20049;-50
2022/08/05 09:48:34;;;;;;;3.38;2.53;;;36.40;70.30;;;;;;5082778;28;20029;-47
2022/08/05 09:51:04;;;;;;;7.30;3.38;;;;;;;;;;5086698;28;20032;-48
2022/08/05 09:53:49;;;;;;;3.40;3.08;;;37.10;94.50;;;;;;5088302;28;20491;-51
2022/08/05 09:56:27;;;;;;;4.55;3.00;;;37.00;89.90;;;;;;5088988;28;20059;-51
2022/08/05 09:58:57;;;;;;;4.40;2.85;;;;;;;;;;5039480;28;20086;-49
2022/08/05 10:01:23;;;;;;;3.53;2.83;;;;;;;;;;5091617;28;20028;-47
2022/08/05 10:03:58;;;;;;;3.08;2.75;;;;;;;;;;5089549;28;20035;-53
2022/08/05 10:06:26;;;;;;;4.78;3.20;;;36.90;75.30;;;;;;5087641;28;20080;-58
2022/08/05 10:08:52;;;;;;;4.22;2.60;;;37.10;73.90;;;;;;5084005;28;20032;-50
2022/08/05 10:11:18;;;;;;;5.65;3.25;;;;;;;;;;5042301;28;21051;-47
2022/08/05 10:13:44;;;;;;;5.88;2.90;;;;;;;;;;5092560;28;20064;-51
2022/08/05 10:16:34;;;;;;;4.30;3.00;;;37.90;88.80;;;;;;5050345;28;20093;-48
2022/08/05 10:19:00;;;;;;;4.45;2.80;;;38.10;69.80;;;;;;5085313;28;20059;-58
2022/08/05 10:21:27;;;;;;;6.57;3.20;;;38.20;69.60;;;;;;5095138;28;20032;-52
2022/08/05 10:23:54;;;;;;;6.68;3.15;;;38.00;70.40;;;;;;5083470;28;20024;-53
2022/08/05 10:26:20;;;;;;;4.03;3.00;;;37.90;70.20;;;;;;5053893;28;20040;-52
2022/08/05 10:28:46;;;;;;;3.78;2.97;;;37.70;69.30;;;;;;5058779;28;20101;-53
2022/08/05 10:31:16;;;;;;;3.60;3.05;;;37.50;69.50;;;;;;5091946;28;20039;-52
2022/08/05 10:33:43;;;;;;;2.47;2.28;;;38.00;70.40;;;;;;5095105;28;20059;-48
2022/08/05 10:36:09;;;;;;;5.22;3.28;;;36.70;70.00;;;;;;5094462;28;20036;-49
2022/08/05 10:38:36;;;;;;;3.35;2.85;;;37.10;77.00;;;;;;4950164;28;20045;-50
2022/08/05 10:41:21;;;;;;;4.20;3.20;;;37.50;75.20;;;;;;5032220;28;20049;-52
2022/08/05 10:44:08;;;;;;;4.47;2.90;;;37.70;71.30;;;;;;5031261;28;20752;-49
2022/08/05 10:46:51;;;;;;;5.68;2.65;;;37.80;69.90;;;;;;4989521;28;20053;-51
2022/08/05 10:49:18;;;;;;;3.28;2.35;;;39.10;86.50;;;;;;4985865;28;20130;-49
2022/08/05 10:51:45;;;;;;;4.40;2.70;;;;;;;;;;4988487;28;20478;-51
2022/08/05 10:54:11;;;;;;;3.13;2.53;;;;;;;;;;4986223;28;20429;-51
2022/08/05 10:57:04;;;;;;;6.38;2.65;;;;;;;;;;4982941;28;20482;-51
2022/08/05 10:59:30;;;;;;;3.33;3.03;;;38.90;86.20;;;;;;4981668;28;20557;-51
2022/08/05 11:02:07;;;;;;;5.93;2.90;;;38.80;86.70;;;;;;4981530;28;20031;-51
2022/08/05 11:04:54;;;;;;;3.90;3.35;;;38.70;86.70;;;;;;4978687;28;20642;-50
2022/08/05 11:07:20;;;;;;;6.70;2.60;;;38.60;86.40;;;;;;4981875;28;20041;-51
2022/08/05 11:09:48;;;;;;;3.58;2.72;;;38.90;87.20;;;;;;5006286;28;20413;-50
2022/08/05 11:12:25;;;;;;;4.50;2.88;;;39.00;81.90;;;;;;5015882;28;20034;-52
2022/08/05 11:15:09;;;;;;;3.70;2.85;;;;;;;;;;5024239;28;20042;-51
2022/08/05 11:17:37;;;;;;;12.35;5.45;;;;;;;;;;5023119;28;20029;-50
2022/08/05 11:20:23;;;;;;;5.72;3.42;;;;;;;;;;5052977;28;20036;-49
2022/08/05 11:22:51;;;;;;;3.15;2.85;;;40.00;75.70;;;;;;5062552;28;20040;-53
2022/08/05 11:25:58;;;;;;;4.05;3.00;;;40.00;67.00;;;;;;5093902;28;20020;-54
2022/08/05 11:28:24;;;;;;;5.60;2.75;;;39.60;65.20;;;;;;5020606;28;20096;-53
2022/08/05 11:30:55;;;;;;;3.75;2.85;;;39.70;66.10;;;;;;5004177;28;20485;-54
2022/08/05 11:33:31;;;;;;;8.20;2.65;;;39.70;65.60;;;;;;5016286;28;20517;-52
2022/08/05 11:35:59;;;;;;;4.07;2.92;;;39.90;65.90;;;;;;5018280;28;20038;-52
2022/08/05 11:38:43;;;;;;;3.10;2.53;;;39.70;65.40;;;;;;5020775;28;20092;-53
2022/08/05 11:41:17;;;;;;;3.15;2.80;;;38.60;64.90;;;;;;5018984;28;20103;-52
2022/08/05 11:44:00;;;;;;;10.18;2.97;;;39.30;65.90;;;;;;5020546;28;20025;-51
2022/08/05 11:46:26;;;;;;;4.80;3.03;;;39.80;66.90;;;;;;5017907;28;20160;-52
2022/08/05 11:48:53;;;;;;;2.70;2.50;;;39.60;64.60;;;;;;5019867;28;20113;-50
2022/08/05 11:51:18;;;;;;;3.78;3.10;;;40.10;64.80;;;;;;5018223;28;20045;-53
2022/08/05 11:53:45;;;;;;;4.80;2.85;;;39.50;64.00;;;;;;4993524;28;20042;-54
2022/08/05 11:56:11;;;;;;;3.88;2.70;;;39.50;64.50;;;;;;5019326;28;20059;-53
2022/08/05 11:58:39;;;;;;;2.85;2.63;;;39.80;65.20;;;;;;4994352;28;20560;-52
2022/08/05 12:01:07;;;;;;;4.40;2.60;;;40.10;64.40;;;;;;5010048;28;20038;-53
2022/08/05 12:03:43;;;;;;;3.38;2.80;;;40.10;64.70;;;;;;5021363;28;20080;-51
2022/08/05 12:06:10;;;;;;;3.75;2.85;;;40.30;65.60;;;;;;5040600;28;20506;-50
2022/08/05 12:08:53;;;;;;;3.05;2.60;;;40.10;64.10;;;;;;5093404;28;20028;-53
2022/08/05 12:11:22;;;;;;;4.32;3.03;;;40.20;64.70;;;;;;5092895;28;20552;-52
2022/08/05 12:14:02;;;;;;;3.03;2.58;;;;;;;;;;5092418;28;20081;-50
2022/08/05 12:16:33;;;;;;;5.13;2.70;;;38.80;63.80;;;;;;5092019;28;20036;-53
2022/08/05 12:18:59;;;;;;;3.35;2.80;;;38.50;63.80;;;;;;5056885;28;20163;-50
2022/08/05 12:21:26;;;;;;;3.13;2.63;;;38.50;65.90;;;;;;5092438;28;20038;-50
2022/08/05 12:23:59;;;;;;;3.72;3.05;;;38.90;67.60;;;;;;5055632;28;20046;-51
2022/08/05 12:26:30;;;;;;;2.95;2.65;;;;;;;;;;5091111;28;20024;-52
2022/08/05 12:28:55;;;;;;;;;;;38.60;72.90;;;;;;5093474;28;20036;-52
2022/08/05 12:31:22;;;;;;;3.20;2.90;;;;;;;;;;5091362;28;19908;-51
2022/08/05 12:33:48;;;;;;;4.00;2.67;;;;;;;;;;5038985;28;20058;-49
2022/08/05 12:36:14;;;;;;;3.53;2.80;;;39.60;61.80;;;;;;5091333;28;20515;-50
2022/08/05 12:38:40;;;;;;;5.57;3.08;;;;;;;;;;5092202;28;20052;-50
2022/08/05 12:41:08;;;;;;;5.25;3.20;;;;;;;;;;5092058;28;20032;-49
2022/08/05 12:43:34;;;;;;;3.95;2.95;;;;;;;;;;5092049;28;20376;-52
2022/08/05 12:46:00;;;;;;;6.97;3.47;;;40.70;63.40;;;;;;5091626;28;20143;-50
2022/08/05 12:48:26;;;;;;;4.05;3.30;;;;;;;;;;5091965;28;20107;-50
2022/08/05 12:51:26;;;;;;;5.43;3.42;;;40.90;61.70;;;;;;5089237;28;20031;-50
2022/08/05 12:53:58;;;;;;;5.28;3.00;;;40.70;62.50;;;;;;4981591;28;20058;-49
2022/08/05 12:56:24;;;;;;;3.30;2.90;;;40.20;62.20;;;;;;4987102;28;20050;-50
2022/08/05 12:59:12;;;;;;;3.17;2.88;;;40.20;62.10;;;;;;4989902;28;20453;-48
2022/08/05 13:01:40;;;;;;;4.60;3.08;;;40.10;62.00;;;;;;4983217;28;20041;-49
2022/08/05 13:04:06;;;;;;;3.42;3.13;;;39.80;61.60;;;;;;4987485;28;20070;-49
2022/08/05 13:06:32;;;;;;;4.10;2.85;;;39.80;61.80;;;;;;4989625;28;20061;-49
2022/08/05 13:09:06;;;;;;;3.35;3.05;;;39.90;62.40;;;;;;4989766;28;20034;-49
2022/08/05 13:11:32;;;;;;;5.40;3.15;;;40.00;62.60;;;;;;4982888;28;20038;-48
2022/08/05 13:13:57;;;;;;;6.75;3.58;;;40.40;62.70;;;;;;4989635;28;20034;-48
2022/08/05 13:16:23;;;;;;;5.22;3.25;;;40.40;63.60;;;;;;4989332;28;20128;-49
2022/08/05 13:18:54;;;;;;;5.07;3.17;;;40.60;62.30;;;;;;4950866;29;20431;-49
2022/08/05 13:21:20;;;;;;;5.70;3.03;;;40.50;61.60;;;;;;4951534;29;20039;-49